createdAt,value
2018-06-22T00:01:50.245Z,12.14
2018-06-22T00:02:50.241Z,12.04
2018-06-22T00:04:43.143Z,12.12
2018-06-22T00:05:43.204Z,12.19
2018-06-22T00:07:36.093Z,12.31
2018-06-22T00:08:36.089Z,12.32
2018-06-22T00:10:28.991Z,12.24
2018-06-22T00:11:29.008Z,12.27
2018-06-22T00:13:21.936Z,12.29
2018-06-22T00:14:21.938Z,12.27
2018-06-22T00:16:14.839Z,12.14
2018-06-22T00:17:14.855Z,12.14
2018-06-22T00:19:07.778Z,12.13
2018-06-22T00:20:07.778Z,11.96
2018-06-22T00:22:00.703Z,12.13
2018-06-22T00:23:00.703Z,12.12
2018-06-22T00:24:53.609Z,12.16
2018-06-22T00:25:53.625Z,12.13
2018-06-22T00:27:46.549Z,12.14
2018-06-22T00:28:46.546Z,12.10
2018-06-22T00:30:39.452Z,12.13
2018-06-22T00:31:39.472Z,12.09
2018-06-22T00:33:32.395Z,12.17
2018-06-22T00:34:32.397Z,12.07
2018-06-22T00:36:25.302Z,12.02
2018-06-22T00:37:25.320Z,12.02
2018-06-22T00:39:18.243Z,11.82
2018-06-22T00:40:18.242Z,11.86
2018-06-22T00:42:11.182Z,11.88
2018-06-22T00:43:11.168Z,11.78
2018-06-22T00:45:05.064Z,11.82
2018-06-22T00:46:05.081Z,11.86
2018-06-22T00:47:58.005Z,11.85
2018-06-22T00:48:58.003Z,11.83
2018-06-22T00:50:50.907Z,11.85
2018-06-22T00:51:50.926Z,11.88
2018-06-22T00:53:43.861Z,11.70
2018-06-22T00:54:43.850Z,11.73
2018-06-22T00:56:36.756Z,11.83
2018-06-22T00:57:36.773Z,11.85
2018-06-22T00:59:29.698Z,11.83
2018-06-22T01:00:29.695Z,11.82
2018-06-22T01:02:22.671Z,11.86
2018-06-22T01:03:22.620Z,11.72
2018-06-22T01:05:15.530Z,11.73
2018-06-22T01:06:15.550Z,11.70
2018-06-22T01:08:08.477Z,11.65
2018-06-22T01:09:08.472Z,11.61
2018-06-22T01:11:01.378Z,11.75
2018-06-22T01:12:01.397Z,11.75
2018-06-22T01:13:54.327Z,11.72
2018-06-22T01:14:54.322Z,11.79
2018-06-22T01:16:47.225Z,11.75
2018-06-22T01:17:47.242Z,11.67
2018-06-22T01:19:40.167Z,11.64
2018-06-22T01:20:40.165Z,11.70
2018-06-22T01:22:33.092Z,11.73
2018-06-22T01:23:33.092Z,11.76
2018-06-22T01:25:25.992Z,11.76
2018-06-22T01:26:26.012Z,11.73
2018-06-22T01:28:18.935Z,11.76
2018-06-22T01:29:18.931Z,11.72
2018-06-22T01:31:11.833Z,11.75
2018-06-22T01:32:11.853Z,11.76
2018-06-22T01:34:04.776Z,11.76
2018-06-22T01:35:04.773Z,11.76
2018-06-22T01:36:57.674Z,11.85
2018-06-22T01:37:57.692Z,11.91
2018-06-22T01:39:50.618Z,12.02
2018-06-22T01:40:50.613Z,12.05
2018-06-22T01:42:43.514Z,12.09
2018-06-22T01:43:43.534Z,12.09
2018-06-22T01:45:36.456Z,12.09
2018-06-22T01:46:36.455Z,12.14
2018-06-22T01:48:29.378Z,12.19
2018-06-22T01:49:29.377Z,12.24
2018-06-22T01:51:22.288Z,12.20
2018-06-22T01:52:22.300Z,12.19
2018-06-22T01:54:15.225Z,12.14
2018-06-22T01:55:15.223Z,12.21
2018-06-22T01:57:08.128Z,12.34
2018-06-22T01:58:08.147Z,12.29
2018-06-22T02:00:01.078Z,12.32
2018-06-22T02:01:01.072Z,12.28
2018-06-22T02:02:53.975Z,12.42
2018-06-22T02:03:53.994Z,12.39
2018-06-22T02:05:46.941Z,12.41
2018-06-22T02:06:46.917Z,12.52
2018-06-22T02:08:39.847Z,12.49
2018-06-22T02:09:39.844Z,12.46
2018-06-22T02:11:32.745Z,12.46
2018-06-22T02:12:32.765Z,12.49
2018-06-22T02:14:25.689Z,12.59
2018-06-22T02:15:25.687Z,12.56
2018-06-22T02:17:18.592Z,12.59
2018-06-22T02:18:18.611Z,12.59
2018-06-22T02:20:11.535Z,12.53
2018-06-22T02:21:11.536Z,12.57
2018-06-22T02:23:04.444Z,12.50
2018-06-22T02:24:04.459Z,12.49
2018-06-22T02:25:57.384Z,12.49
2018-06-22T02:26:57.382Z,12.53
2018-06-22T02:28:50.312Z,12.47
2018-06-22T02:29:50.310Z,12.64
2018-06-22T02:31:43.216Z,12.67
2018-06-22T02:32:43.233Z,12.65
2018-06-22T02:34:36.158Z,12.59
2018-06-22T02:35:36.157Z,12.62
2018-06-22T02:37:29.062Z,12.65
2018-06-22T02:38:29.080Z,12.71
2018-06-22T02:40:22.006Z,12.77
2018-06-22T02:41:22.009Z,12.72
2018-06-22T02:43:14.907Z,12.70
2018-06-22T02:44:14.926Z,12.70
2018-06-22T02:46:07.856Z,12.68
2018-06-22T02:47:07.853Z,12.71
2018-06-22T02:49:00.781Z,12.70
2018-06-22T02:50:00.776Z,12.75
2018-06-22T02:51:53.681Z,12.75
2018-06-22T02:52:53.702Z,12.72
2018-06-22T02:54:46.623Z,12.85
2018-06-22T02:55:46.624Z,12.78
2018-06-22T02:57:39.531Z,12.87
2018-06-22T02:58:39.550Z,12.90
2018-06-22T03:00:32.474Z,12.83
2018-06-22T03:01:32.472Z,12.96
2018-06-22T03:03:25.375Z,12.86
2018-06-22T03:04:25.440Z,12.79
2018-06-22T03:06:18.322Z,12.72
2018-06-22T03:07:18.321Z,12.79
2018-06-22T03:09:11.253Z,12.74
2018-06-22T03:10:11.252Z,12.77
2018-06-22T03:12:04.225Z,12.72
2018-06-22T03:13:04.174Z,12.68
2018-06-22T03:14:57.101Z,12.82
2018-06-22T03:15:57.096Z,12.65
2018-06-22T03:17:50.003Z,12.67
2018-06-22T03:18:50.021Z,12.68
2018-06-22T03:20:42.947Z,12.77
2018-06-22T03:21:42.948Z,12.72
2018-06-22T03:23:35.847Z,12.75
2018-06-22T03:24:35.869Z,12.78
2018-06-22T03:26:28.790Z,12.85
2018-06-22T03:27:28.788Z,12.83
2018-06-22T03:29:21.722Z,12.92
2018-06-22T03:30:21.721Z,12.90
2018-06-22T03:32:14.626Z,12.82
2018-06-22T03:33:14.644Z,12.90
2018-06-22T03:35:07.575Z,12.85
2018-06-22T03:36:07.576Z,12.72
2018-06-22T03:38:00.483Z,12.82
2018-06-22T03:39:00.500Z,12.77
2018-06-22T03:40:53.429Z,12.78
2018-06-22T03:41:53.427Z,12.79
2018-06-22T03:43:46.333Z,12.74
2018-06-22T03:44:46.352Z,12.75
2018-06-22T03:46:39.275Z,12.68
2018-06-22T03:47:39.274Z,12.72
2018-06-22T03:49:32.200Z,12.78
2018-06-22T03:50:32.198Z,12.71
2018-06-22T03:52:25.104Z,12.72
2018-06-22T03:53:25.121Z,12.77
2018-06-22T03:55:18.045Z,12.62
2018-06-22T03:56:18.046Z,12.67
2018-06-22T03:58:10.949Z,12.72
2018-06-22T03:59:10.971Z,12.72
2018-06-22T04:01:03.895Z,12.64
2018-06-22T04:02:03.892Z,12.68
2018-06-22T04:03:56.797Z,12.65
2018-06-22T04:04:56.816Z,12.65
2018-06-22T04:06:49.744Z,12.62
2018-06-22T04:07:49.741Z,12.59
2018-06-22T04:09:42.668Z,12.65
2018-06-22T04:10:42.668Z,12.64
2018-06-22T04:12:35.570Z,12.57
2018-06-22T04:13:35.589Z,12.70
2018-06-22T04:15:28.513Z,12.68
2018-06-22T04:16:28.518Z,12.62
2018-06-22T04:18:21.417Z,12.77
2018-06-22T04:19:21.435Z,12.70
2018-06-22T04:21:14.366Z,12.62
2018-06-22T04:22:14.361Z,12.59
2018-06-22T04:24:07.266Z,12.49
2018-06-22T04:25:07.284Z,12.46
2018-06-22T04:27:00.210Z,12.39
2018-06-22T04:28:00.206Z,12.20
2018-06-22T04:29:53.134Z,12.02
2018-06-22T04:30:53.129Z,12.04
2018-06-22T04:32:46.032Z,11.85
2018-06-22T04:33:46.050Z,11.86
2018-06-22T04:35:38.975Z,11.86
2018-06-22T04:36:38.974Z,11.76
2018-06-22T04:38:31.884Z,11.88
2018-06-22T04:39:31.899Z,11.83
2018-06-22T04:41:24.823Z,11.86
2018-06-22T04:42:24.816Z,11.96
2018-06-22T04:44:17.722Z,11.73
2018-06-22T04:45:17.740Z,11.78
2018-06-22T04:47:10.666Z,11.91
2018-06-22T04:48:10.667Z,11.88
2018-06-22T04:50:03.588Z,11.85
2018-06-22T04:51:03.585Z,11.86
2018-06-22T04:52:56.487Z,11.85
2018-06-22T04:53:56.505Z,11.85
2018-06-22T04:55:49.429Z,11.96
2018-06-22T04:56:49.427Z,11.96
2018-06-22T04:58:42.338Z,12.09
2018-06-22T04:59:42.412Z,12.12
2018-06-22T05:01:35.309Z,12.09
2018-06-22T05:02:35.303Z,11.96
2018-06-22T05:04:28.212Z,11.95
2018-06-22T05:05:28.231Z,12.05
2018-06-22T05:07:21.160Z,12.05
2018-06-22T05:08:21.154Z,11.99
2018-06-22T05:10:14.085Z,12.10
2018-06-22T05:11:14.081Z,12.05
2018-06-22T05:13:06.989Z,12.01
2018-06-22T05:14:07.008Z,12.07
2018-06-22T05:15:59.934Z,12.02
2018-06-22T05:16:59.935Z,12.10
2018-06-22T05:18:52.839Z,12.09
2018-06-22T05:19:52.865Z,11.85
2018-06-22T05:21:45.783Z,11.99
2018-06-22T05:22:45.862Z,12.01
2018-06-22T05:24:38.689Z,11.98
2018-06-22T05:25:38.707Z,11.86
2018-06-22T05:27:31.635Z,11.82
2018-06-22T05:28:31.632Z,11.90
2018-06-22T05:30:24.607Z,11.83
2018-06-22T05:31:24.571Z,11.91
2018-06-22T05:33:17.475Z,11.83
2018-06-22T05:34:17.497Z,11.90
2018-06-22T05:36:10.430Z,12.04
2018-06-22T05:37:10.417Z,12.02
2018-06-22T05:39:03.325Z,12.02
2018-06-22T05:40:03.342Z,11.98
2018-06-22T05:41:56.275Z,11.91
2018-06-22T05:42:56.268Z,11.83
2018-06-22T05:44:49.175Z,11.82
2018-06-22T05:45:49.193Z,11.73
2018-06-22T05:47:42.119Z,11.72
2018-06-22T05:48:42.119Z,11.72
2018-06-22T05:50:35.076Z,11.79
2018-06-22T05:51:35.043Z,11.73
2018-06-22T05:53:27.946Z,11.85
2018-06-22T05:54:27.964Z,11.70
2018-06-22T05:56:20.896Z,11.73
2018-06-22T05:57:20.888Z,11.75
2018-06-22T05:59:13.794Z,11.72
2018-06-22T06:00:13.813Z,11.72
2018-06-22T06:02:06.735Z,11.78
2018-06-22T06:03:06.736Z,11.78
2018-06-22T06:04:59.642Z,11.83
2018-06-22T06:05:59.659Z,11.90
2018-06-22T06:07:52.590Z,11.88
2018-06-22T06:08:52.582Z,11.88
2018-06-22T06:10:45.520Z,11.83
2018-06-22T06:11:45.521Z,11.85
2018-06-22T06:13:38.425Z,11.91
2018-06-22T06:14:38.441Z,11.83
2018-06-22T06:16:31.368Z,11.86
2018-06-22T06:17:31.364Z,11.88
2018-06-22T06:19:24.270Z,11.91
2018-06-22T06:20:24.290Z,11.83
2018-06-22T06:22:17.221Z,11.96
2018-06-22T06:23:17.222Z,11.86
2018-06-22T06:25:10.127Z,11.99
2018-06-22T06:26:10.145Z,12.01
2018-06-22T06:28:03.069Z,11.96
2018-06-22T06:29:03.066Z,11.98
2018-06-22T06:30:55.994Z,12.02
2018-06-22T06:31:55.993Z,11.86
2018-06-22T06:33:48.897Z,12.13
2018-06-22T06:34:48.918Z,12.29
2018-06-22T06:36:41.846Z,12.52
2018-06-22T06:37:41.845Z,12.64
2018-06-22T06:39:34.752Z,12.87
2018-06-22T06:40:34.773Z,12.90
2018-06-22T06:42:27.704Z,12.90
2018-06-22T06:43:27.702Z,12.89
2018-06-22T06:45:20.610Z,12.85
2018-06-22T06:46:20.631Z,12.78
2018-06-22T06:48:13.559Z,12.82
2018-06-22T06:49:13.558Z,12.89
2018-06-22T06:51:06.488Z,13.05
2018-06-22T06:52:06.492Z,13.10
2018-06-22T06:53:59.400Z,13.01
2018-06-22T06:54:59.423Z,12.97
2018-06-22T06:56:52.470Z,13.03
2018-06-22T06:57:52.355Z,13.17
2018-06-22T06:59:45.266Z,13.19
2018-06-22T07:00:45.285Z,13.14
2018-06-22T07:02:38.261Z,13.19
2018-06-22T07:03:38.218Z,13.23
2018-06-22T07:05:31.124Z,13.25
2018-06-22T07:06:31.143Z,13.14
2018-06-22T07:08:24.115Z,13.26
2018-06-22T07:09:24.074Z,13.29
2018-06-22T07:11:17.004Z,13.63
2018-06-22T07:12:17.004Z,13.69
2018-06-22T07:14:09.914Z,13.73
2018-06-22T07:15:09.938Z,13.77
2018-06-22T07:17:02.867Z,13.73
2018-06-22T07:18:02.869Z,13.75
2018-06-22T07:19:55.781Z,13.75
2018-06-22T07:20:55.798Z,13.82
2018-06-22T07:22:48.729Z,13.77
2018-06-22T07:23:48.730Z,13.87
2018-06-22T07:25:41.639Z,13.89
2018-06-22T07:26:41.661Z,14.07
2018-06-22T07:28:34.591Z,14.15
2018-06-22T07:29:34.592Z,14.22
2018-06-22T07:31:27.522Z,14.28
2018-06-22T07:32:27.521Z,14.39
2018-06-22T07:34:20.432Z,14.40
2018-06-22T07:35:20.455Z,14.52
2018-06-22T07:37:13.385Z,14.57
2018-06-22T07:38:13.385Z,14.47
2018-06-22T07:40:06.296Z,14.58
2018-06-22T07:41:06.318Z,14.42
2018-06-22T07:42:59.250Z,14.47
2018-06-22T07:43:59.331Z,14.24
2018-06-22T07:45:52.159Z,14.17
2018-06-22T07:46:52.180Z,14.03
2018-06-22T07:48:45.116Z,13.81
2018-06-22T07:49:45.176Z,13.85
2018-06-22T07:51:38.050Z,13.77
2018-06-22T07:52:38.048Z,13.70
2018-06-22T07:54:30.961Z,13.77
2018-06-22T07:55:30.978Z,13.79
2018-06-22T07:57:23.914Z,13.73
2018-06-22T07:58:23.912Z,13.75
2018-06-22T08:00:16.825Z,13.85
2018-06-22T08:01:16.843Z,13.85
2018-06-22T08:03:09.771Z,13.91
2018-06-22T08:04:09.773Z,13.92
2018-06-22T08:06:02.683Z,14.18
2018-06-22T08:07:02.703Z,14.15
2018-06-22T08:08:55.630Z,14.12
2018-06-22T08:09:55.632Z,14.27
2018-06-22T08:11:48.565Z,14.45
2018-06-22T08:12:48.563Z,14.40
2018-06-22T08:14:41.478Z,14.37
2018-06-22T08:15:41.499Z,14.20
2018-06-22T08:17:34.439Z,14.28
2018-06-22T08:18:34.434Z,14.29
2018-06-22T08:20:27.345Z,14.27
2018-06-22T08:21:27.365Z,14.14
2018-06-22T08:23:20.300Z,14.10
2018-06-22T08:24:20.299Z,14.15
2018-06-22T08:26:13.209Z,13.97
2018-06-22T08:27:13.228Z,14.00
2018-06-22T08:29:06.162Z,13.95
2018-06-22T08:30:06.166Z,13.84
2018-06-22T08:31:59.098Z,13.79
2018-06-22T08:32:59.095Z,13.87
2018-06-22T08:34:52.009Z,13.82
2018-06-22T08:35:52.026Z,13.81
2018-06-22T08:37:44.955Z,13.75
2018-06-22T08:38:44.953Z,13.73
2018-06-22T08:40:37.861Z,13.75
2018-06-22T08:41:37.930Z,13.64
2018-06-22T08:43:30.811Z,13.63
2018-06-22T08:44:30.810Z,13.55
2018-06-22T08:46:23.718Z,13.70
2018-06-22T08:47:23.738Z,13.75
2018-06-22T08:49:16.669Z,13.78
2018-06-22T08:50:16.671Z,13.87
2018-06-22T08:52:09.597Z,13.99
2018-06-22T08:53:09.596Z,14.07
2018-06-22T08:55:02.511Z,14.02
2018-06-22T08:56:02.528Z,14.06
2018-06-22T08:57:55.463Z,14.12
2018-06-22T08:58:55.460Z,14.22
2018-06-22T09:00:48.370Z,14.14
2018-06-22T09:01:48.391Z,14.15
2018-06-22T09:03:41.320Z,14.14
2018-06-22T09:04:41.319Z,14.20
2018-06-22T09:06:34.228Z,14.24
2018-06-22T09:07:34.249Z,14.32
2018-06-22T09:09:27.178Z,14.42
2018-06-22T09:10:27.180Z,14.64
2018-06-22T09:12:20.110Z,14.94
2018-06-22T09:13:20.110Z,15.17
2018-06-22T09:15:13.022Z,15.49
2018-06-22T09:16:13.043Z,15.67
2018-06-22T09:18:05.976Z,15.90
2018-06-22T09:19:05.976Z,15.87
2018-06-22T09:20:58.889Z,15.80
2018-06-22T09:21:58.911Z,15.59
2018-06-22T09:23:51.841Z,15.28
2018-06-22T09:24:51.843Z,15.39
2018-06-22T09:26:44.754Z,15.27
2018-06-22T09:27:44.776Z,15.31
2018-06-22T09:29:37.705Z,15.21
2018-06-22T09:30:37.704Z,15.41
2018-06-22T09:32:30.647Z,15.67
2018-06-22T09:33:30.649Z,15.76
2018-06-22T09:35:23.565Z,15.82
2018-06-22T09:36:23.588Z,15.92
2018-06-22T09:38:16.518Z,15.80
2018-06-22T09:39:16.525Z,15.76
2018-06-22T09:41:09.432Z,15.80
2018-06-22T09:42:09.452Z,15.82
2018-06-22T09:44:02.388Z,16.05
2018-06-22T09:45:02.440Z,16.00
2018-06-22T09:46:55.304Z,16.11
2018-06-22T09:47:55.326Z,16.17
2018-06-22T09:49:48.269Z,16.27
2018-06-22T09:50:48.271Z,16.28
2018-06-22T09:52:41.208Z,16.38
2018-06-22T09:53:41.206Z,16.45
2018-06-22T09:55:34.170Z,16.57
2018-06-22T09:56:34.192Z,16.61
2018-06-22T09:58:27.127Z,16.93
2018-06-22T09:59:27.137Z,16.97
2018-06-22T10:01:20.046Z,16.97
2018-06-22T10:02:20.078Z,17.04
2018-06-22T10:04:13.004Z,17.26
2018-06-22T10:05:13.015Z,17.40
2018-06-22T10:07:05.924Z,17.16
2018-06-22T10:08:05.958Z,17.11
2018-06-22T10:09:58.885Z,17.00
2018-06-22T10:10:58.888Z,16.86
2018-06-22T10:12:51.823Z,16.63
2018-06-22T10:13:51.834Z,16.52
2018-06-22T10:15:44.747Z,16.43
2018-06-22T10:16:44.767Z,16.42
2018-06-22T10:18:37.703Z,16.14
2018-06-22T10:19:37.757Z,16.04
2018-06-22T10:21:31.124Z,15.86
2018-06-22T10:22:31.144Z,15.82
2018-06-22T10:24:24.111Z,15.72
2018-06-22T10:25:24.114Z,15.84
2018-06-22T10:27:17.102Z,16.01
2018-06-22T10:28:17.068Z,16.20
2018-06-22T10:30:10.000Z,16.33
2018-06-22T10:31:10.005Z,16.49
2018-06-22T10:33:02.970Z,16.64
2018-06-22T10:34:03.003Z,16.64
2018-06-22T10:35:55.908Z,16.85
2018-06-22T10:36:55.930Z,17.00
2018-06-22T10:38:48.879Z,16.91
2018-06-22T10:39:48.887Z,17.04
2018-06-22T10:41:41.819Z,16.97
2018-06-22T10:42:41.844Z,17.01
2018-06-22T10:44:34.791Z,16.96
2018-06-22T10:45:34.796Z,16.94
2018-06-22T10:47:27.726Z,16.67
2018-06-22T10:48:27.750Z,16.64
2018-06-22T10:50:21.211Z,16.41
2018-06-22T10:51:21.215Z,16.45
2018-06-22T10:53:24.150Z,16.35
2018-06-22T10:54:24.160Z,16.21
2018-06-22T10:56:17.064Z,16.23
2018-06-22T10:57:17.088Z,16.34
2018-06-22T10:59:10.019Z,16.45
2018-06-22T11:00:10.021Z,16.31
2018-06-22T11:02:02.933Z,16.52
2018-06-22T11:03:02.951Z,16.61
2018-06-22T11:04:55.886Z,16.91
2018-06-22T11:05:55.886Z,17.06
2018-06-22T11:07:48.798Z,17.16
2018-06-22T11:08:48.821Z,17.34
2018-06-22T11:10:41.750Z,17.23
2018-06-22T11:11:41.752Z,17.28
2018-06-22T11:13:34.689Z,17.48
2018-06-22T11:14:34.687Z,17.28
2018-06-22T11:16:27.607Z,17.59
2018-06-22T11:17:27.634Z,17.68
2018-06-22T11:19:20.561Z,17.87
2018-06-22T11:20:20.561Z,17.87
2018-06-22T11:22:13.477Z,17.92
2018-06-22T11:23:13.508Z,17.99
2018-06-22T11:25:06.438Z,17.96
2018-06-22T11:26:06.436Z,17.92
2018-06-22T11:27:59.353Z,17.63
2018-06-22T11:28:59.374Z,17.22
2018-06-22T11:30:52.379Z,16.81
2018-06-22T11:31:55.835Z,16.45
2018-06-22T11:33:45.242Z,15.90
2018-06-22T11:34:45.243Z,15.87
2018-06-22T11:36:38.300Z,15.69
2018-06-22T11:37:38.321Z,15.44
2018-06-22T11:39:31.251Z,15.50
2018-06-22T11:40:31.253Z,15.57
2018-06-22T11:42:24.172Z,15.54
2018-06-22T11:43:24.186Z,15.56
2018-06-22T11:45:17.116Z,15.62
2018-06-22T11:46:17.117Z,15.71
2018-06-22T11:48:10.034Z,15.90
2018-06-22T11:49:10.050Z,15.76
2018-06-22T11:51:03.066Z,16.21
2018-06-22T11:52:02.982Z,16.31
2018-06-22T11:53:55.913Z,16.67
2018-06-22T11:54:55.913Z,16.75
2018-06-22T11:56:48.827Z,16.81
2018-06-22T11:57:48.850Z,16.78
2018-06-22T11:59:41.820Z,16.82
2018-06-22T12:00:41.795Z,16.88
2018-06-22T12:02:34.696Z,16.86
2018-06-22T12:03:34.720Z,16.88
2018-06-22T12:05:27.657Z,16.68
2018-06-22T12:06:27.655Z,16.73
2018-06-22T12:08:20.572Z,16.78
2018-06-22T12:09:20.595Z,16.64
2018-06-22T12:11:13.542Z,16.57
2018-06-22T12:12:13.543Z,16.67
2018-06-22T12:14:06.485Z,16.70
2018-06-22T12:15:06.473Z,16.64
2018-06-22T12:16:59.387Z,16.58
2018-06-22T12:17:59.409Z,16.45
2018-06-22T12:19:52.847Z,16.58
2018-06-22T12:20:52.851Z,16.56
2018-06-22T12:22:45.798Z,16.64
2018-06-22T12:23:45.811Z,16.53
2018-06-22T12:25:38.718Z,16.58
2018-06-22T12:26:38.718Z,16.67
2018-06-22T12:28:31.633Z,16.61
2018-06-22T12:29:31.652Z,16.86
2018-06-22T12:31:24.583Z,17.07
2018-06-22T12:32:24.589Z,16.94
2018-06-22T12:34:17.583Z,17.03
2018-06-22T12:35:17.519Z,17.03
2018-06-22T12:37:10.461Z,17.22
2018-06-22T12:38:10.453Z,17.48
2018-06-22T12:40:03.454Z,17.30
2018-06-22T12:41:03.387Z,17.18
2018-06-22T12:42:56.791Z,17.08
2018-06-22T12:43:56.815Z,16.97
2018-06-22T12:45:49.745Z,17.11
2018-06-22T12:46:49.748Z,17.23
2018-06-22T12:48:42.658Z,17.34
2018-06-22T12:49:42.678Z,17.49
2018-06-22T12:51:35.615Z,17.68
2018-06-22T12:52:35.612Z,17.71
2018-06-22T12:54:28.546Z,17.75
2018-06-22T12:55:28.549Z,17.72
2018-06-22T12:57:21.458Z,17.71
2018-06-22T12:58:21.481Z,17.77
2018-06-22T13:00:14.414Z,17.81
2018-06-22T13:01:14.414Z,17.86
2018-06-22T13:03:07.326Z,17.84
2018-06-22T13:04:07.422Z,17.92
2018-06-22T13:06:00.282Z,17.95
2018-06-22T13:07:00.284Z,18.15
2018-06-22T13:08:53.197Z,18.26
2018-06-22T13:09:53.218Z,18.08
2018-06-22T13:11:46.153Z,18.00
2018-06-22T13:12:46.155Z,18.08
2018-06-22T13:14:39.087Z,18.08
2018-06-22T13:15:39.088Z,18.03
2018-06-22T13:17:32.010Z,18.30
2018-06-22T13:18:32.025Z,18.23
2018-06-22T13:20:24.962Z,18.39
2018-06-22T13:21:24.962Z,18.55
2018-06-22T13:23:17.876Z,18.57
2018-06-22T13:24:17.899Z,18.57
2018-06-22T13:26:10.833Z,18.80
2018-06-22T13:27:10.835Z,18.84
2018-06-22T13:29:03.748Z,18.73
2018-06-22T13:30:03.771Z,18.75
2018-06-22T13:31:56.706Z,18.57
2018-06-22T13:32:56.710Z,18.57
2018-06-22T13:34:49.848Z,18.51
2018-06-22T13:35:49.854Z,18.55
2018-06-22T13:37:42.766Z,18.33
2018-06-22T13:38:42.791Z,18.37
2018-06-22T13:40:35.725Z,18.05
2018-06-22T13:41:35.727Z,17.90
2018-06-22T13:43:28.639Z,17.51
2018-06-22T13:44:28.665Z,17.28
2018-06-22T13:46:21.597Z,16.98
2018-06-22T13:47:21.598Z,16.82
2018-06-22T13:49:14.511Z,16.56
2018-06-22T13:50:14.649Z,16.49
2018-06-22T13:52:07.468Z,16.30
2018-06-22T13:53:07.468Z,16.24
2018-06-22T13:55:00.404Z,16.12
2018-06-22T13:56:00.409Z,16.17
2018-06-22T13:57:53.317Z,16.48
2018-06-22T13:58:53.340Z,16.61
2018-06-22T14:00:46.270Z,16.88
2018-06-22T14:01:46.273Z,16.93
2018-06-22T14:03:39.186Z,17.16
2018-06-22T14:04:39.209Z,17.18
2018-06-22T14:06:32.143Z,17.31
2018-06-22T14:07:32.153Z,17.40
2018-06-22T14:09:25.158Z,17.72
2018-06-22T14:10:25.079Z,17.81
2018-06-22T14:12:18.014Z,17.96
2018-06-22T14:13:18.017Z,18.12
2018-06-22T14:15:10.966Z,18.23
2018-06-22T14:16:10.959Z,18.39
2018-06-22T14:18:03.870Z,18.55
2018-06-22T14:19:03.893Z,18.63
2018-06-22T14:20:56.830Z,18.69
2018-06-22T14:21:56.829Z,18.69
2018-06-22T14:23:49.765Z,18.67
2018-06-22T14:24:49.765Z,18.76
2018-06-22T14:26:42.702Z,18.76
2018-06-22T14:27:42.788Z,18.76
2018-06-22T14:29:35.625Z,18.63
2018-06-22T14:30:35.644Z,18.52
2018-06-22T14:32:28.586Z,18.27
2018-06-22T14:33:28.587Z,18.25
2018-06-22T14:35:21.521Z,18.32
2018-06-22T14:36:21.526Z,18.45
2018-06-22T14:38:14.443Z,18.54
2018-06-22T14:39:14.462Z,18.48
2018-06-22T14:41:07.396Z,18.45
2018-06-22T14:42:07.399Z,18.26
2018-06-22T14:44:00.316Z,18.18
2018-06-22T14:45:00.344Z,18.23
2018-06-22T14:46:53.272Z,18.14
2018-06-22T14:47:53.274Z,18.18
2018-06-22T14:49:46.189Z,18.17
2018-06-22T14:50:46.212Z,18.02
2018-06-22T14:52:39.156Z,17.81
2018-06-22T14:53:39.152Z,17.72
2018-06-22T14:55:32.272Z,17.74
2018-06-22T14:56:32.264Z,17.78
2018-06-22T14:58:25.178Z,17.59
2018-06-22T14:59:25.201Z,17.40
2018-06-22T15:01:18.137Z,17.33
2018-06-22T15:02:18.138Z,17.43
2018-06-22T15:04:11.049Z,17.41
2018-06-22T15:05:11.076Z,17.51
2018-06-22T15:07:04.064Z,17.66
2018-06-22T15:08:04.020Z,17.81
2018-06-22T15:09:56.936Z,17.72
2018-06-22T15:10:56.956Z,17.41
2018-06-22T15:12:49.905Z,17.59
2018-06-22T15:13:49.895Z,17.44
2018-06-22T15:15:42.829Z,17.59
2018-06-22T15:16:42.831Z,17.66
2018-06-22T15:18:35.746Z,17.64
2018-06-22T15:19:35.770Z,17.63
2018-06-22T15:21:28.706Z,17.68
2018-06-22T15:22:28.708Z,17.75
2018-06-22T15:24:21.680Z,17.79
2018-06-22T15:25:21.653Z,17.81
2018-06-22T15:27:14.587Z,17.81
2018-06-22T15:28:14.589Z,17.87
2018-06-22T15:30:07.501Z,17.92
2018-06-22T15:31:07.526Z,18.14
2018-06-22T15:33:00.460Z,18.26
2018-06-22T15:34:00.462Z,18.37
2018-06-22T15:35:53.373Z,18.42
2018-06-22T15:36:53.397Z,18.39
2018-06-22T15:38:46.333Z,18.14
2018-06-22T15:39:46.399Z,18.26
2018-06-22T15:41:39.270Z,18.26
2018-06-22T15:42:39.272Z,18.07
2018-06-22T15:44:32.187Z,18.07
2018-06-22T15:45:32.210Z,18.08
2018-06-22T15:47:25.148Z,18.12
2018-06-22T15:48:25.149Z,18.10
2018-06-22T15:50:18.067Z,18.18
2018-06-22T15:51:18.086Z,18.14
2018-06-22T15:53:11.021Z,18.32
2018-06-22T15:54:11.045Z,18.18
2018-06-22T15:56:03.938Z,18.12
2018-06-22T15:57:03.962Z,18.12
2018-06-22T15:58:56.894Z,18.00
2018-06-22T15:59:56.950Z,18.02
2018-06-22T16:01:49.833Z,18.15
2018-06-22T16:02:49.842Z,17.99
2018-06-22T16:04:42.747Z,17.96
2018-06-22T16:05:42.769Z,18.07
2018-06-22T16:07:35.704Z,18.08
2018-06-22T16:08:35.705Z,18.10
2018-06-22T16:10:28.617Z,18.18
2018-06-22T16:11:28.666Z,18.27
2018-06-22T16:13:21.576Z,18.11
2018-06-22T16:14:21.575Z,18.00
2018-06-22T16:16:14.491Z,17.99
2018-06-22T16:17:14.513Z,18.17
2018-06-22T16:19:07.466Z,18.21
2018-06-22T16:20:07.458Z,18.27
2018-06-22T16:22:00.391Z,18.27
2018-06-22T16:23:00.390Z,18.44
2018-06-22T16:24:53.303Z,18.47
2018-06-22T16:25:53.327Z,18.32
2018-06-22T16:27:46.257Z,18.27
2018-06-22T16:28:46.263Z,18.32
2018-06-22T16:30:39.237Z,18.42
2018-06-22T16:31:39.200Z,18.45
2018-06-22T16:33:32.134Z,18.45
2018-06-22T16:34:32.136Z,18.50
2018-06-22T16:36:25.051Z,18.54
2018-06-22T16:37:25.074Z,18.58
2018-06-22T16:39:18.009Z,18.82
2018-06-22T16:40:18.013Z,18.80
2018-06-22T16:42:10.946Z,18.84
2018-06-22T16:43:10.947Z,18.81
2018-06-22T16:45:03.860Z,18.78
2018-06-22T16:46:03.915Z,18.84
2018-06-22T16:47:56.820Z,18.81
2018-06-22T16:48:56.825Z,18.88
2018-06-22T16:50:49.739Z,18.58
2018-06-22T16:51:49.908Z,18.47
2018-06-22T16:53:42.701Z,18.55
2018-06-22T16:54:42.700Z,18.44
2018-06-22T16:56:35.615Z,18.30
2018-06-22T16:57:35.691Z,18.36
2018-06-22T16:59:28.572Z,18.30
2018-06-22T17:00:28.572Z,18.21
2018-06-22T17:02:21.508Z,18.41
2018-06-22T17:03:21.509Z,18.42
2018-06-22T17:05:14.421Z,18.54
2018-06-22T17:06:14.443Z,18.42
2018-06-22T17:08:07.379Z,18.36
2018-06-22T17:09:07.381Z,18.42
2018-06-22T17:11:00.296Z,18.32
2018-06-22T17:12:00.320Z,18.32
2018-06-22T17:13:53.251Z,18.39
2018-06-22T17:14:53.253Z,18.37
2018-06-22T17:16:46.204Z,18.14
2018-06-22T17:17:46.228Z,18.20
2018-06-22T17:19:39.186Z,18.08
2018-06-22T17:20:39.212Z,18.05
2018-06-22T17:22:32.173Z,17.93
2018-06-22T17:23:32.660Z,17.87
2018-06-22T17:25:25.131Z,17.78
2018-06-22T17:26:25.114Z,17.77
2018-06-22T17:28:19.117Z,17.75
2018-06-22T17:29:18.030Z,17.74
2018-06-22T17:31:10.998Z,17.82
2018-06-22T17:32:11.062Z,17.96
2018-06-22T17:34:04.104Z,17.95
2018-06-22T17:35:04.070Z,18.00
2018-06-22T17:36:56.987Z,17.90
2018-06-22T17:37:57.017Z,17.95
2018-06-22T17:39:51.585Z,17.86
2018-06-22T17:40:51.587Z,17.99
2018-06-22T17:42:44.594Z,17.93
2018-06-22T17:43:44.569Z,18.11
2018-06-22T17:45:37.466Z,18.12
2018-06-22T17:46:37.491Z,18.15
2018-06-22T17:48:30.425Z,18.11
2018-06-22T17:49:30.451Z,18.18
2018-06-22T17:51:23.379Z,18.17
2018-06-22T17:52:23.383Z,18.15
2018-06-22T17:54:16.340Z,18.36
2018-06-22T17:55:16.356Z,18.63
2018-06-22T17:57:09.255Z,18.88
2018-06-22T17:58:09.283Z,18.90
2018-06-22T18:00:02.486Z,18.88
2018-06-22T18:01:02.472Z,18.75
2018-06-22T18:02:56.291Z,18.72
2018-06-22T18:03:55.786Z,18.80
2018-06-22T18:05:48.687Z,18.90
2018-06-22T18:06:48.710Z,18.82
2018-06-22T18:08:41.649Z,18.58
2018-06-22T18:09:41.731Z,18.41
2018-06-22T18:11:34.564Z,18.10
2018-06-22T18:12:34.730Z,18.11
2018-06-22T18:14:27.525Z,18.02
2018-06-22T18:15:27.526Z,18.08
2018-06-22T18:17:20.438Z,18.21
2018-06-22T18:18:20.462Z,18.12
2018-06-22T18:20:13.482Z,18.08
2018-06-22T18:21:13.398Z,17.97
2018-06-22T18:23:06.355Z,18.11
2018-06-22T18:24:06.339Z,17.97
2018-06-22T18:25:59.252Z,17.90
2018-06-22T18:26:59.274Z,17.79
2018-06-22T18:28:52.208Z,17.79
2018-06-22T18:29:52.212Z,17.81
2018-06-22T18:31:45.125Z,17.79
2018-06-22T18:32:45.147Z,17.74
2018-06-22T18:34:38.078Z,17.49